createdAt,value
2017-08-31T00:01:03.154Z,37.63
2017-08-31T00:03:33.896Z,39.63
2017-08-31T00:06:05.288Z,39.10
2017-08-31T00:08:37.267Z,39.70
2017-08-31T00:13:51.839Z,46.50
2017-08-31T00:16:21.466Z,42.30
2017-08-31T00:18:51.036Z,42.73
2017-08-31T00:21:22.605Z,43.90
2017-08-31T00:23:53.279Z,44.70
2017-08-31T00:26:24.509Z,42.27
2017-08-31T00:28:58.302Z,42.03
2017-08-31T00:31:29.600Z,40.17
2017-08-31T00:33:59.899Z,43.00
2017-08-31T00:36:31.360Z,44.37
2017-08-31T00:39:01.988Z,42.10
2017-08-31T00:41:34.806Z,44.43
2017-08-31T00:44:09.051Z,40.20
2017-08-31T00:46:40.269Z,43.27
2017-08-31T00:49:10.859Z,43.93
2017-08-31T00:51:42.143Z,43.87
2017-08-31T00:54:19.187Z,42.73
2017-08-31T00:56:54.563Z,42.10
2017-08-31T00:59:31.679Z,43.73
2017-08-31T01:02:03.647Z,43.83
2017-08-31T01:04:34.218Z,48.83
2017-08-31T01:07:14.613Z,48.53
2017-08-31T01:09:50.022Z,49.90
2017-08-31T01:12:19.429Z,46.30
2017-08-31T01:14:52.215Z,43.43
2017-08-31T01:20:07.371Z,50.90
2017-08-31T01:22:36.811Z,74.23
2017-08-31T01:25:07.423Z,49.07
2017-08-31T01:27:37.491Z,41.00
2017-08-31T01:30:08.631Z,37.00
2017-08-31T01:32:43.546Z,37.20
2017-08-31T01:35:13.903Z,30.27
2017-08-31T01:37:49.612Z,29.40
2017-08-31T01:40:20.738Z,24.83
2017-08-31T01:42:51.846Z,32.17
2017-08-31T01:45:21.334Z,35.67
2017-08-31T01:47:51.747Z,27.07
2017-08-31T01:50:22.290Z,24.07
2017-08-31T01:52:51.738Z,25.10
2017-08-31T01:55:25.052Z,33.37
2017-08-31T01:57:55.547Z,33.07
2017-08-31T02:00:27.436Z,38.07
2017-08-31T02:02:57.880Z,32.97
2017-08-31T02:05:28.534Z,40.00
2017-08-31T02:07:58.120Z,34.47
2017-08-31T02:10:29.694Z,32.90
2017-08-31T02:12:59.771Z,37.00
2017-08-31T02:15:38.527Z,33.47
2017-08-31T02:18:14.147Z,33.80
2017-08-31T02:20:44.473Z,36.07
2017-08-31T02:23:15.088Z,29.03
2017-08-31T02:25:48.914Z,28.40
2017-08-31T02:28:18.954Z,26.67
2017-08-31T02:30:49.473Z,26.97
2017-08-31T02:33:19.938Z,23.37
2017-08-31T02:35:50.181Z,24.30
2017-08-31T02:38:19.677Z,23.20
2017-08-31T02:40:49.035Z,23.23
2017-08-31T02:43:18.495Z,24.90
2017-08-31T02:45:47.731Z,25.47
2017-08-31T02:48:16.951Z,24.33
2017-08-31T02:50:46.176Z,24.00
2017-08-31T02:53:15.537Z,25.20
2017-08-31T02:55:45.978Z,22.80
2017-08-31T02:58:15.275Z,20.90
2017-08-31T03:00:47.365Z,21.50
2017-08-31T03:03:21.050Z,20.00
2017-08-31T03:05:51.237Z,18.10
2017-08-31T03:08:22.976Z,16.17
2017-08-31T03:10:55.122Z,15.40
2017-08-31T03:13:25.244Z,12.37
2017-08-31T03:15:54.544Z,10.90
2017-08-31T03:18:23.758Z,12.80
2017-08-31T03:20:53.026Z,12.07
2017-08-31T03:23:22.845Z,11.77
2017-08-31T03:25:52.287Z,12.00
2017-08-31T03:28:21.775Z,11.90
2017-08-31T03:30:51.097Z,10.57
2017-08-31T03:33:20.407Z,13.23
2017-08-31T03:35:50.180Z,11.77
2017-08-31T03:38:19.511Z,13.27
2017-08-31T03:40:48.821Z,14.13
2017-08-31T03:43:18.194Z,16.50
2017-08-31T03:45:48.166Z,16.27
2017-08-31T03:48:19.171Z,16.90
2017-08-31T03:50:49.425Z,14.23
2017-08-31T03:53:19.280Z,15.83
2017-08-31T03:55:48.744Z,15.90
2017-08-31T03:58:18.558Z,16.30
2017-08-31T04:00:47.909Z,15.87
2017-08-31T04:03:17.134Z,14.00
2017-08-31T04:05:46.587Z,14.37
2017-08-31T04:08:15.834Z,17.77
2017-08-31T04:10:46.190Z,44.73
2017-08-31T04:13:15.980Z,11.73
2017-08-31T04:15:45.586Z,12.80
2017-08-31T04:18:15.243Z,14.53
2017-08-31T04:20:45.448Z,14.50
2017-08-31T04:23:15.020Z,14.23
2017-08-31T04:25:44.368Z,14.33
2017-08-31T04:28:14.220Z,14.23
2017-08-31T04:30:44.177Z,13.63
2017-08-31T04:33:14.398Z,15.53
2017-08-31T04:35:44.340Z,35.87
2017-08-31T04:38:15.259Z,11.37
2017-08-31T04:40:44.842Z,13.37
2017-08-31T04:43:14.990Z,10.77
2017-08-31T04:45:44.421Z,10.03
2017-08-31T04:48:15.753Z,10.63
2017-08-31T04:50:45.309Z,8.97
2017-08-31T04:53:15.166Z,7.50
2017-08-31T04:55:44.408Z,8.40
2017-08-31T04:58:13.954Z,10.17
2017-08-31T05:00:44.488Z,10.87
2017-08-31T05:03:14.411Z,9.57
2017-08-31T05:05:44.307Z,8.07
2017-08-31T05:08:14.623Z,8.70
2017-08-31T05:10:44.618Z,9.30
2017-08-31T05:13:14.698Z,8.17
2017-08-31T05:15:44.739Z,8.33
2017-08-31T05:18:15.571Z,8.93
2017-08-31T05:20:45.431Z,8.80
2017-08-31T05:23:16.355Z,10.50
2017-08-31T05:25:46.861Z,9.87
2017-08-31T05:28:20.045Z,9.90
2017-08-31T05:30:50.499Z,13.93
2017-08-31T05:33:30.766Z,8.53
2017-08-31T05:36:01.344Z,10.40
2017-08-31T05:38:31.468Z,10.73
2017-08-31T05:41:01.184Z,12.97
2017-08-31T05:43:32.240Z,14.30
2017-08-31T05:46:01.721Z,14.13
2017-08-31T05:48:31.311Z,12.47
2017-08-31T05:59:35.014Z,9.90
2017-08-31T06:02:04.459Z,10.23
2017-08-31T06:04:35.227Z,10.37
2017-08-31T06:07:16.663Z,10.60
2017-08-31T06:09:46.393Z,10.03
2017-08-31T06:12:16.901Z,10.87
2017-08-31T06:14:47.549Z,10.37
2017-08-31T06:17:17.180Z,11.20
2017-08-31T06:19:46.622Z,10.03
2017-08-31T06:22:16.332Z,11.63
2017-08-31T06:24:45.750Z,10.67
2017-08-31T06:27:29.884Z,8.50
2017-08-31T06:30:22.846Z,8.70
2017-08-31T06:32:59.105Z,9.30
2017-08-31T06:35:45.876Z,9.70
2017-08-31T06:38:28.959Z,8.67
2017-08-31T06:41:29.377Z,9.47
2017-08-31T06:44:12.315Z,9.93
2017-08-31T06:46:42.950Z,10.13
2017-08-31T06:49:15.254Z,13.60
2017-08-31T06:51:45.135Z,15.03
2017-08-31T06:54:14.918Z,18.17
2017-08-31T06:56:45.295Z,15.60
2017-08-31T06:59:15.017Z,17.77
2017-08-31T07:01:58.491Z,16.43
2017-08-31T07:04:33.419Z,15.00
2017-08-31T07:07:03.827Z,16.20
2017-08-31T07:09:33.917Z,17.20
2017-08-31T07:12:09.631Z,14.23
2017-08-31T07:14:43.085Z,14.60
2017-08-31T07:17:12.965Z,13.87
2017-08-31T07:19:45.370Z,15.40
2017-08-31T07:22:15.102Z,15.60
2017-08-31T07:24:58.728Z,15.20
2017-08-31T07:27:30.803Z,16.93
2017-08-31T07:30:02.923Z,15.53
2017-08-31T07:32:50.007Z,14.10
2017-08-31T07:35:45.303Z,15.63
2017-08-31T07:38:17.227Z,14.20
2017-08-31T07:40:48.003Z,14.10
2017-08-31T07:43:22.816Z,13.87
2017-08-31T07:45:58.524Z,16.20
2017-08-31T07:48:31.159Z,14.00
2017-08-31T07:51:03.421Z,15.20
2017-08-31T07:53:36.641Z,15.47
2017-08-31T07:56:09.644Z,14.90
2017-08-31T07:58:40.081Z,16.40
2017-08-31T08:01:10.507Z,15.93
2017-08-31T08:03:41.602Z,15.70
2017-08-31T08:06:11.580Z,15.43
2017-08-31T08:08:44.410Z,16.60
2017-08-31T08:11:27.336Z,19.30
2017-08-31T08:14:01.795Z,15.87
2017-08-31T08:16:32.409Z,15.50
2017-08-31T08:19:02.710Z,14.73
2017-08-31T08:21:33.841Z,14.10
2017-08-31T08:24:04.161Z,16.90
2017-08-31T08:26:33.798Z,17.53
2017-08-31T08:29:12.898Z,16.97
2017-08-31T08:31:46.388Z,19.33
2017-08-31T08:34:18.059Z,17.53
2017-08-31T08:36:51.626Z,20.57
2017-08-31T08:39:21.386Z,18.77
2017-08-31T08:41:52.448Z,19.30
2017-08-31T08:44:24.216Z,17.00
2017-08-31T08:46:57.226Z,16.10
2017-08-31T08:52:27.086Z,17.17
2017-08-31T08:54:58.316Z,14.43
2017-08-31T08:57:28.040Z,16.27
2017-08-31T08:59:57.926Z,13.53
2017-08-31T09:02:27.271Z,15.20
2017-08-31T09:04:56.732Z,13.10
2017-08-31T09:07:26.207Z,8.23
2017-08-31T09:09:58.664Z,7.67
2017-08-31T09:12:28.983Z,7.93
2017-08-31T09:15:00.918Z,10.40
2017-08-31T09:17:30.624Z,8.07
2017-08-31T09:20:00.385Z,7.70
2017-08-31T09:22:30.260Z,6.13
2017-08-31T09:25:18.506Z,5.80
2017-08-31T09:27:48.841Z,6.03
2017-08-31T09:30:25.273Z,5.27
2017-08-31T09:32:55.266Z,5.93
2017-08-31T09:35:34.976Z,6.00
2017-08-31T09:38:07.931Z,5.73
2017-08-31T09:40:39.128Z,7.23
2017-08-31T09:43:10.432Z,9.20
2017-08-31T09:45:40.679Z,8.47
2017-08-31T09:48:11.855Z,7.43
2017-08-31T09:50:46.755Z,6.70
2017-08-31T09:53:22.388Z,6.90
2017-08-31T09:56:19.008Z,7.40
2017-08-31T09:59:00.150Z,6.70
2017-08-31T10:01:32.103Z,11.30
2017-08-31T10:04:03.241Z,10.37
2017-08-31T10:06:33.809Z,10.17
2017-08-31T10:09:04.964Z,9.33
2017-08-31T10:11:43.821Z,8.63
2017-08-31T10:14:14.022Z,9.57
2017-08-31T10:16:44.558Z,12.30
2017-08-31T10:19:15.220Z,13.67
2017-08-31T10:21:49.857Z,11.07
2017-08-31T10:24:21.106Z,11.60
2017-08-31T10:26:50.942Z,13.07
2017-08-31T10:29:22.131Z,11.43
2017-08-31T10:31:52.868Z,10.90
2017-08-31T10:34:23.229Z,10.80
2017-08-31T10:36:53.857Z,12.87
2017-08-31T10:39:24.692Z,11.77
2017-08-31T10:41:57.404Z,13.53
2017-08-31T10:44:27.878Z,10.27
2017-08-31T10:47:02.016Z,10.20
2017-08-31T10:49:32.633Z,12.40
2017-08-31T10:52:02.794Z,9.57
2017-08-31T10:54:34.083Z,13.57
2017-08-31T10:57:04.102Z,8.93
2017-08-31T10:59:34.099Z,13.37
2017-08-31T11:02:04.389Z,9.17
2017-08-31T11:04:34.791Z,6.40
2017-08-31T11:07:04.935Z,8.17
2017-08-31T11:09:35.767Z,10.43
2017-08-31T11:12:06.881Z,8.37
2017-08-31T11:14:36.795Z,8.87
2017-08-31T11:17:07.273Z,6.60
2017-08-31T11:19:44.429Z,10.00
2017-08-31T11:22:18.502Z,9.50
2017-08-31T11:24:51.683Z,9.63
2017-08-31T11:27:23.609Z,9.77
2017-08-31T11:29:54.023Z,9.60
2017-08-31T11:32:26.958Z,10.30
2017-08-31T11:34:57.186Z,11.00
2017-08-31T11:37:27.861Z,10.90
2017-08-31T11:39:58.832Z,11.33
2017-08-31T11:42:40.800Z,11.37
2017-08-31T11:45:10.964Z,14.27
2017-08-31T11:47:42.577Z,13.33
2017-08-31T11:50:52.685Z,10.67
2017-08-31T11:53:22.468Z,10.73
2017-08-31T11:55:54.849Z,9.80
2017-08-31T11:58:25.891Z,9.57
2017-08-31T12:00:57.673Z,7.50
2017-08-31T12:03:29.429Z,6.90
2017-08-31T12:06:00.529Z,7.87
2017-08-31T12:08:32.068Z,8.10
2017-08-31T12:11:02.155Z,10.03
2017-08-31T12:13:35.825Z,11.30
2017-08-31T12:16:06.528Z,10.20
2017-08-31T12:18:37.592Z,9.87
2017-08-31T12:21:08.028Z,9.03
2017-08-31T12:23:38.030Z,9.23
2017-08-31T12:26:16.328Z,9.07
2017-08-31T12:28:47.321Z,8.50
2017-08-31T12:34:13.264Z,9.60
2017-08-31T12:36:43.553Z,11.87
2017-08-31T12:39:14.047Z,10.63
2017-08-31T12:41:44.273Z,8.83
2017-08-31T12:44:17.543Z,10.17
2017-08-31T12:46:47.552Z,7.80
2017-08-31T12:49:19.597Z,8.23
2017-08-31T12:52:05.892Z,6.50
2017-08-31T12:54:36.326Z,8.17
2017-08-31T12:57:08.153Z,9.47
2017-08-31T12:59:37.938Z,12.73
2017-08-31T13:02:07.707Z,8.50
2017-08-31T13:04:39.820Z,8.13
2017-08-31T13:07:17.598Z,7.97
2017-08-31T13:09:48.807Z,9.10
2017-08-31T13:12:19.128Z,8.43
2017-08-31T13:14:55.273Z,11.67
2017-08-31T13:17:26.316Z,8.63
2017-08-31T13:19:55.916Z,7.73
2017-08-31T13:22:25.614Z,8.17
2017-08-31T13:24:55.600Z,7.50
2017-08-31T13:27:26.120Z,8.20
2017-08-31T13:29:56.297Z,8.80
2017-08-31T13:32:26.353Z,9.23
2017-08-31T13:34:57.580Z,7.90
2017-08-31T13:37:34.593Z,6.33
2017-08-31T13:40:04.260Z,7.93
2017-08-31T13:42:34.020Z,8.10
2017-08-31T13:45:03.705Z,8.80
2017-08-31T13:47:34.076Z,9.00
2017-08-31T13:50:04.035Z,11.90
2017-08-31T13:52:35.310Z,9.17
2017-08-31T13:55:05.383Z,9.70
2017-08-31T13:57:36.119Z,10.77
2017-08-31T14:00:05.728Z,7.90
2017-08-31T14:02:36.357Z,10.40
2017-08-31T14:05:06.711Z,8.50
2017-08-31T14:07:38.240Z,9.70
2017-08-31T14:10:08.066Z,10.50
2017-08-31T14:12:51.363Z,8.20
2017-08-31T14:15:22.101Z,10.90
2017-08-31T14:18:05.276Z,9.10
2017-08-31T14:20:45.315Z,8.17
2017-08-31T14:23:15.164Z,8.93
2017-08-31T14:25:48.249Z,8.10
2017-08-31T14:28:18.416Z,12.27
2017-08-31T14:30:48.556Z,7.90
2017-08-31T14:33:57.821Z,6.37
2017-08-31T14:36:39.238Z,9.20
2017-08-31T14:39:11.574Z,8.40
2017-08-31T14:41:42.707Z,12.17
2017-08-31T14:44:13.184Z,7.67
2017-08-31T14:46:43.747Z,7.00
2017-08-31T14:49:16.645Z,5.87
2017-08-31T14:51:48.618Z,7.83
2017-08-31T14:54:20.575Z,7.10
2017-08-31T14:56:54.407Z,6.60
2017-08-31T14:59:27.338Z,7.00
2017-08-31T15:01:58.470Z,5.50
2017-08-31T15:04:28.450Z,6.40
2017-08-31T15:06:58.578Z,5.93
2017-08-31T15:10:02.545Z,5.60
2017-08-31T15:12:39.179Z,7.83
2017-08-31T15:15:09.750Z,10.00
2017-08-31T15:17:40.161Z,6.47
2017-08-31T15:20:09.952Z,7.13
2017-08-31T15:22:39.499Z,6.23
2017-08-31T15:25:09.045Z,7.37
2017-08-31T15:27:39.664Z,8.70
2017-08-31T15:30:09.754Z,6.80
2017-08-31T15:32:39.363Z,7.00
2017-08-31T15:35:09.579Z,13.60
2017-08-31T15:37:39.122Z,10.87
2017-08-31T15:40:10.867Z,8.70
2017-08-31T15:42:42.220Z,8.53
2017-08-31T15:45:17.399Z,9.63
2017-08-31T15:47:58.798Z,8.13
2017-08-31T15:50:32.973Z,12.00
2017-08-31T15:53:25.326Z,9.47
2017-08-31T15:56:05.982Z,8.73
2017-08-31T15:58:39.213Z,8.87
2017-08-31T16:01:18.123Z,7.07
2017-08-31T16:03:55.183Z,7.20
2017-08-31T16:06:27.325Z,7.67
2017-08-31T16:08:58.913Z,7.73
2017-08-31T16:11:36.133Z,7.37
2017-08-31T16:14:06.785Z,10.30
2017-08-31T16:16:38.926Z,7.90
2017-08-31T16:19:12.023Z,7.17
2017-08-31T16:21:44.986Z,8.90
2017-08-31T16:24:14.900Z,9.07
2017-08-31T16:26:45.129Z,7.67
2017-08-31T16:29:15.654Z,8.40
2017-08-31T16:31:54.826Z,7.30
2017-08-31T16:34:25.564Z,6.40
2017-08-31T16:36:55.782Z,12.43
2017-08-31T16:39:25.751Z,11.33
2017-08-31T16:41:55.489Z,8.70
2017-08-31T16:44:26.285Z,12.03
2017-08-31T16:46:55.559Z,7.07
2017-08-31T16:49:25.238Z,7.07
2017-08-31T16:51:55.167Z,6.33
2017-08-31T16:54:25.394Z,5.70
2017-08-31T16:56:57.038Z,7.30
2017-08-31T16:59:41.158Z,8.00
2017-08-31T17:02:11.512Z,8.00
2017-08-31T17:04:46.222Z,8.60
2017-08-31T17:07:16.624Z,7.63
2017-08-31T17:09:46.996Z,7.37
2017-08-31T17:12:17.473Z,6.17
2017-08-31T17:14:47.800Z,7.83
2017-08-31T17:17:20.903Z,8.67
2017-08-31T17:19:51.254Z,8.27
2017-08-31T17:22:27.674Z,6.50
2017-08-31T17:25:02.766Z,8.10
2017-08-31T17:27:53.504Z,9.20
2017-08-31T17:30:23.042Z,8.50
2017-08-31T17:32:53.577Z,8.70
2017-08-31T17:35:25.406Z,5.90
2017-08-31T17:37:57.165Z,7.97
2017-08-31T17:40:29.155Z,9.20
2017-08-31T17:43:06.114Z,7.40
2017-08-31T17:45:36.094Z,9.10
2017-08-31T17:48:06.430Z,7.27
2017-08-31T17:50:36.488Z,9.50
2017-08-31T17:53:09.529Z,6.30
2017-08-31T17:55:40.383Z,7.20
2017-08-31T17:58:12.112Z,16.80
2017-08-31T18:01:13.374Z,8.50
2017-08-31T18:03:43.210Z,6.30
2017-08-31T18:06:12.827Z,8.10
2017-08-31T18:08:43.089Z,8.80
2017-08-31T18:11:15.253Z,8.63
2017-08-31T18:13:46.508Z,8.43
2017-08-31T18:16:17.326Z,8.97
2017-08-31T18:18:48.248Z,8.83
2017-08-31T18:21:20.454Z,13.60
2017-08-31T18:23:50.527Z,14.47
2017-08-31T18:26:21.374Z,13.30
2017-08-31T18:28:54.158Z,18.93
2017-08-31T18:31:26.372Z,13.70
2017-08-31T18:33:59.408Z,11.87
2017-08-31T18:36:32.353Z,16.50
2017-08-31T18:39:03.492Z,10.90
2017-08-31T18:41:35.610Z,12.17
2017-08-31T18:44:10.819Z,12.60
2017-08-31T18:46:42.001Z,8.43
2017-08-31T18:49:16.750Z,12.97
2017-08-31T18:51:48.523Z,14.67
2017-08-31T18:54:24.913Z,10.97
2017-08-31T18:57:00.378Z,13.90
2017-08-31T18:59:33.059Z,9.80
2017-08-31T19:02:05.131Z,12.43
2017-08-31T19:04:36.591Z,12.40
2017-08-31T19:07:09.095Z,9.60
2017-08-31T19:09:39.572Z,9.17
2017-08-31T19:12:10.647Z,7.37
2017-08-31T19:14:40.819Z,9.67
2017-08-31T19:17:10.574Z,14.10
2017-08-31T19:19:40.313Z,10.53
2017-08-31T19:22:10.555Z,18.87
2017-08-31T19:24:40.235Z,9.77
2017-08-31T19:27:30.027Z,12.27
2017-08-31T19:30:01.114Z,13.47
2017-08-31T19:32:34.147Z,12.50
2017-08-31T19:35:14.668Z,15.77
2017-08-31T19:37:47.473Z,12.00
2017-08-31T19:40:41.406Z,24.50
2017-08-31T19:43:18.886Z,22.33
2017-08-31T19:45:56.161Z,12.23
2017-08-31T19:51:18.436Z,11.83
2017-08-31T19:53:55.623Z,18.13
2017-08-31T19:56:41.593Z,18.90
2017-08-31T19:59:18.357Z,21.50
2017-08-31T20:02:04.126Z,16.03
2017-08-31T20:04:35.124Z,13.90
2017-08-31T20:07:13.823Z,14.67
2017-08-31T20:09:57.893Z,16.20
2017-08-31T20:12:39.904Z,13.60
2017-08-31T20:15:43.463Z,14.93
2017-08-31T20:18:14.500Z,16.43
2017-08-31T20:20:53.607Z,18.90
2017-08-31T20:23:24.131Z,15.13
2017-08-31T20:25:54.534Z,15.90
2017-08-31T20:28:25.126Z,12.67
2017-08-31T20:30:54.910Z,15.20
2017-08-31T20:33:25.090Z,18.20
2017-08-31T20:35:54.928Z,17.47
2017-08-31T20:38:25.285Z,19.70
2017-08-31T20:40:56.469Z,22.07
2017-08-31T20:43:26.958Z,20.67
2017-08-31T20:45:56.373Z,20.53
2017-08-31T20:48:27.994Z,21.20
2017-08-31T20:50:59.585Z,22.03
2017-08-31T20:53:30.343Z,18.83
2017-08-31T20:56:01.197Z,23.37
2017-08-31T20:58:33.461Z,24.87
2017-08-31T21:01:32.664Z,20.20
2017-08-31T21:04:05.633Z,24.03
2017-08-31T21:06:45.099Z,28.27
2017-08-31T21:09:24.066Z,18.70
2017-08-31T21:11:57.537Z,25.63
2017-08-31T21:14:34.856Z,17.90
2017-08-31T21:17:53.325Z,14.93
2017-08-31T21:20:25.312Z,18.07
2017-08-31T21:22:55.050Z,20.90
2017-08-31T21:25:41.790Z,21.90
2017-08-31T21:28:13.247Z,20.50
2017-08-31T21:30:59.791Z,32.40
2017-08-31T21:33:29.660Z,20.40
2017-08-31T21:36:05.024Z,21.27
2017-08-31T21:38:34.786Z,20.07
2017-08-31T21:41:05.329Z,18.07
2017-08-31T21:46:17.076Z,22.40
2017-08-31T21:48:47.032Z,18.77
2017-08-31T21:51:16.696Z,21.83
2017-08-31T21:53:47.692Z,24.43
2017-08-31T21:56:20.219Z,18.50
2017-08-31T21:58:53.757Z,14.63
2017-08-31T22:01:27.239Z,13.90
2017-08-31T22:03:57.043Z,15.23
2017-08-31T22:06:27.165Z,18.43
2017-08-31T22:12:22.685Z,13.20
2017-08-31T22:14:58.178Z,10.87
2017-08-31T22:17:46.957Z,13.30
2017-08-31T22:20:16.437Z,13.63
2017-08-31T22:22:46.444Z,13.73
2017-08-31T22:25:15.781Z,11.80
2017-08-31T22:27:45.242Z,14.80
2017-08-31T22:30:15.498Z,15.67
2017-08-31T22:32:45.602Z,14.10
2017-08-31T22:35:15.547Z,14.90
2017-08-31T22:37:46.023Z,14.77
2017-08-31T22:40:16.198Z,15.07
2017-08-31T22:42:46.508Z,16.67
2017-08-31T22:45:37.995Z,17.40
2017-08-31T22:48:21.455Z,21.30
2017-08-31T22:50:51.272Z,17.20
2017-08-31T22:53:21.740Z,14.03
2017-08-31T22:55:59.703Z,19.27
2017-08-31T22:58:38.063Z,23.60
2017-08-31T23:01:08.931Z,31.20
2017-08-31T23:03:38.428Z,17.80
2017-08-31T23:06:08.570Z,21.63
2017-08-31T23:08:38.002Z,15.17
2017-08-31T23:11:08.563Z,13.87
2017-08-31T23:13:38.102Z,13.17
2017-08-31T23:16:07.969Z,13.43
2017-08-31T23:18:37.755Z,13.97
2017-08-31T23:21:07.332Z,11.97
2017-08-31T23:23:37.531Z,12.40
2017-08-31T23:26:07.611Z,13.87
2017-08-31T23:28:37.071Z,12.70
2017-08-31T23:31:06.510Z,15.60
2017-08-31T23:33:36.854Z,13.90
2017-08-31T23:36:06.712Z,13.80
2017-08-31T23:38:36.560Z,12.60
2017-08-31T23:41:05.809Z,13.10
2017-08-31T23:43:36.196Z,12.33
2017-08-31T23:46:07.407Z,12.27
2017-08-31T23:48:37.695Z,15.13
2017-08-31T23:51:07.450Z,14.70
2017-08-31T23:53:37.001Z,16.63
2017-08-31T23:56:34.857Z,13.57
2017-08-31T23:59:05.243Z,16.03
